createdAt,value
2018-05-21T00:00:34.332Z,1010.04
2018-05-21T00:01:34.334Z,1010.04
2018-05-21T00:02:34.337Z,1010.01
2018-05-21T00:03:34.339Z,1010.03
2018-05-21T00:04:34.341Z,1010.00
2018-05-21T00:05:34.346Z,1010.00
2018-05-21T00:06:34.346Z,1010.01
2018-05-21T00:07:34.349Z,1009.98
2018-05-21T00:08:34.352Z,1010.01
2018-05-21T00:09:34.353Z,1009.98
2018-05-21T00:10:34.355Z,1009.96
2018-05-21T00:11:34.359Z,1009.98
2018-05-21T00:12:34.361Z,1009.96
2018-05-21T00:13:34.362Z,1009.97
2018-05-21T00:14:34.366Z,1009.94
2018-05-21T00:15:34.410Z,1009.96
2018-05-21T00:16:34.371Z,1009.96
2018-05-21T00:17:34.374Z,1009.97
2018-05-21T00:18:34.373Z,1009.92
2018-05-21T00:19:34.375Z,1009.93
2018-05-21T00:20:34.381Z,1009.90
2018-05-21T00:21:34.379Z,1009.88
2018-05-21T00:22:34.382Z,1009.90
2018-05-21T00:23:34.384Z,1009.90
2018-05-21T00:24:34.387Z,1009.90
2018-05-21T00:25:34.392Z,1009.88
2018-05-21T00:26:34.391Z,1009.89
2018-05-21T00:27:34.392Z,1009.88
2018-05-21T00:28:34.395Z,1009.91
2018-05-21T00:29:34.397Z,1009.82
2018-05-21T00:30:34.399Z,1009.90
2018-05-21T00:31:34.401Z,1009.86
2018-05-21T00:32:34.404Z,1009.88
2018-05-21T00:33:34.405Z,1009.88
2018-05-21T00:34:34.408Z,1009.85
2018-05-21T00:35:34.410Z,1009.83
2018-05-21T00:36:34.412Z,1009.82
2018-05-21T00:37:34.419Z,1009.84
2018-05-21T00:38:34.417Z,1009.84
2018-05-21T00:39:34.423Z,1009.78
2018-05-21T00:40:34.420Z,1009.79
2018-05-21T00:41:34.422Z,1009.76
2018-05-21T00:42:34.427Z,1009.75
2018-05-21T00:43:34.427Z,1009.75
2018-05-21T00:44:34.430Z,1009.77
2018-05-21T00:45:34.431Z,1009.71
2018-05-21T00:46:34.433Z,1009.73
2018-05-21T00:47:34.436Z,1009.73
2018-05-21T00:48:34.442Z,1009.75
2018-05-21T00:49:34.439Z,1009.70
2018-05-21T00:50:34.441Z,1009.71
2018-05-21T00:51:34.444Z,1009.66
2018-05-21T00:52:34.446Z,1009.65
2018-05-21T00:53:34.447Z,1009.67
2018-05-21T00:54:34.449Z,1009.65
2018-05-21T00:55:34.452Z,1009.65
2018-05-21T00:56:34.453Z,1009.62
2018-05-21T00:57:34.456Z,1009.64
2018-05-21T00:58:34.458Z,1009.64
2018-05-21T00:59:34.460Z,1009.61
2018-05-21T01:00:34.462Z,1009.63
2018-05-21T01:01:34.464Z,1009.60
2018-05-21T01:02:34.466Z,1009.57
2018-05-21T01:03:34.469Z,1009.51
2018-05-21T01:04:34.471Z,1009.52
2018-05-21T01:05:34.472Z,1009.53
2018-05-21T01:06:34.475Z,1009.54
2018-05-21T01:07:34.478Z,1009.54
2018-05-21T01:08:34.479Z,1009.55
2018-05-21T01:09:34.483Z,1009.59
2018-05-21T01:10:34.485Z,1009.49
2018-05-21T01:11:34.485Z,1009.61
2018-05-21T01:12:34.490Z,1009.57
2018-05-21T01:13:34.491Z,1009.58
2018-05-21T01:14:34.491Z,1009.62
2018-05-21T01:15:34.494Z,1009.52
2018-05-21T01:16:34.495Z,1009.56
2018-05-21T01:17:34.497Z,1009.59
2018-05-21T01:18:34.498Z,1009.59
2018-05-21T01:19:34.504Z,1009.58
2018-05-21T01:20:34.505Z,1009.55
2018-05-21T01:21:34.504Z,1009.59
2018-05-21T01:22:34.506Z,1009.54
2018-05-21T01:23:34.508Z,1009.56
2018-05-21T01:24:34.510Z,1009.53
2018-05-21T01:25:34.511Z,1009.55
2018-05-21T01:26:34.513Z,1009.57
2018-05-21T01:27:34.515Z,1009.52
2018-05-21T01:28:34.518Z,1009.52
2018-05-21T01:29:34.518Z,1009.50
2018-05-21T01:30:34.522Z,1009.48
2018-05-21T01:31:34.523Z,1009.51
2018-05-21T01:32:34.525Z,1009.46
2018-05-21T01:33:34.526Z,1009.44
2018-05-21T01:34:34.529Z,1009.46
2018-05-21T01:35:34.531Z,1009.45
2018-05-21T01:36:34.533Z,1009.45
2018-05-21T01:37:34.536Z,1009.44
2018-05-21T01:38:34.536Z,1009.45
2018-05-21T01:39:34.538Z,1009.45
2018-05-21T01:40:34.540Z,1009.40
2018-05-21T01:41:34.540Z,1009.46
2018-05-21T01:42:34.547Z,1009.42
2018-05-21T01:43:34.545Z,1009.47
2018-05-21T01:44:34.548Z,1009.49
2018-05-21T01:45:34.548Z,1009.47
2018-05-21T01:46:34.550Z,1009.46
2018-05-21T01:47:34.552Z,1009.48
2018-05-21T01:48:34.554Z,1009.53
2018-05-21T01:49:34.554Z,1009.50
2018-05-21T01:50:34.557Z,1009.53
2018-05-21T01:51:34.559Z,1009.56
2018-05-21T01:52:34.560Z,1009.48
2018-05-21T01:53:34.562Z,1009.48
2018-05-21T01:54:34.564Z,1009.47
2018-05-21T01:55:34.565Z,1009.46
2018-05-21T01:56:34.568Z,1009.46
2018-05-21T01:57:34.568Z,1009.45
2018-05-21T01:58:34.571Z,1009.42
2018-05-21T01:59:34.572Z,1009.51
2018-05-21T02:00:34.575Z,1009.46
2018-05-21T02:01:34.575Z,1009.44
2018-05-21T02:02:34.578Z,1009.38
2018-05-21T02:03:34.580Z,1009.38
2018-05-21T02:04:34.595Z,1009.38
2018-05-21T02:05:34.585Z,1009.34
2018-05-21T02:06:34.582Z,1009.37
2018-05-21T02:07:34.585Z,1009.40
2018-05-21T02:08:34.613Z,1009.37
2018-05-21T02:09:34.587Z,1009.38
2018-05-21T02:10:34.590Z,1009.40
2018-05-21T02:11:34.591Z,1009.40
2018-05-21T02:12:34.593Z,1009.37
2018-05-21T02:13:34.595Z,1009.36
2018-05-21T02:14:34.596Z,1009.37
2018-05-21T02:15:34.598Z,1009.35
2018-05-21T02:16:34.599Z,1009.35
2018-05-21T02:17:34.600Z,1009.36
2018-05-21T02:18:34.602Z,1009.36
2018-05-21T02:19:34.603Z,1009.36
2018-05-21T02:20:34.610Z,1009.34
2018-05-21T02:21:34.608Z,1009.31
2018-05-21T02:22:34.609Z,1009.38
2018-05-21T02:23:34.610Z,1009.35
2018-05-21T02:24:34.612Z,1009.33
2018-05-21T02:25:34.613Z,1009.34
2018-05-21T02:26:34.613Z,1009.38
2018-05-21T02:27:34.616Z,1009.33
2018-05-21T02:28:34.617Z,1009.33
2018-05-21T02:29:34.618Z,1009.38
2018-05-21T02:30:34.624Z,1009.31
2018-05-21T02:31:34.623Z,1009.34
2018-05-21T02:32:34.622Z,1009.31
2018-05-21T02:33:34.624Z,1009.30
2018-05-21T02:34:34.626Z,1009.28
2018-05-21T02:35:34.627Z,1009.28
2018-05-21T02:36:34.634Z,1009.25
2018-05-21T02:37:34.630Z,1009.28
2018-05-21T02:38:34.632Z,1009.27
2018-05-21T02:39:34.637Z,1009.27
2018-05-21T02:40:34.635Z,1009.27
2018-05-21T02:41:34.636Z,1009.27
2018-05-21T02:42:34.636Z,1009.26
2018-05-21T02:43:34.638Z,1009.29
2018-05-21T02:44:34.640Z,1009.28
2018-05-21T02:45:34.641Z,1009.27
2018-05-21T02:46:34.644Z,1009.23
2018-05-21T02:47:34.643Z,1009.25
2018-05-21T02:48:34.646Z,1009.25
2018-05-21T02:49:34.649Z,1009.23
2018-05-21T02:50:34.647Z,1009.21
2018-05-21T02:51:34.649Z,1009.16
2018-05-21T02:52:34.650Z,1009.20
2018-05-21T02:53:34.650Z,1009.19
2018-05-21T02:54:34.654Z,1009.19
2018-05-21T02:55:34.655Z,1009.21
2018-05-21T02:56:34.655Z,1009.25
2018-05-21T02:57:34.656Z,1009.19
2018-05-21T02:58:34.659Z,1009.15
2018-05-21T02:59:34.658Z,1009.18
2018-05-21T03:00:34.660Z,1009.16
2018-05-21T03:01:34.661Z,1009.17
2018-05-21T03:02:34.662Z,1009.18
2018-05-21T03:03:34.663Z,1009.19
2018-05-21T03:04:34.664Z,1009.17
2018-05-21T03:05:34.669Z,1009.21
2018-05-21T03:06:34.666Z,1009.18
2018-05-21T03:07:34.695Z,1009.22
2018-05-21T03:08:34.669Z,1009.19
2018-05-21T03:09:34.672Z,1009.13
2018-05-21T03:10:34.670Z,1009.15
2018-05-21T03:11:34.672Z,1009.24
2018-05-21T03:12:34.673Z,1009.18
2018-05-21T03:13:34.673Z,1009.14
2018-05-21T03:14:34.678Z,1009.16
2018-05-21T03:15:34.675Z,1009.17
2018-05-21T03:16:34.678Z,1009.15
2018-05-21T03:17:34.677Z,1009.15
2018-05-21T03:18:34.680Z,1009.15
2018-05-21T03:19:34.681Z,1009.18
2018-05-21T03:20:34.682Z,1009.19
2018-05-21T03:21:34.682Z,1009.14
2018-05-21T03:22:34.683Z,1009.10
2018-05-21T03:23:34.685Z,1009.11
2018-05-21T03:24:34.686Z,1009.08
2018-05-21T03:25:34.686Z,1009.12
2018-05-21T03:26:34.687Z,1009.10
2018-05-21T03:27:34.689Z,1009.06
2018-05-21T03:28:34.688Z,1009.08
2018-05-21T03:29:34.690Z,1009.06
2018-05-21T03:30:34.691Z,1009.06
2018-05-21T03:31:34.693Z,1009.05
2018-05-21T03:32:34.694Z,1009.05
2018-05-21T03:33:34.695Z,1009.06
2018-05-21T03:34:34.696Z,1009.00
2018-05-21T03:35:34.697Z,1008.98
2018-05-21T03:36:34.699Z,1009.02
2018-05-21T03:37:34.697Z,1008.96
2018-05-21T03:38:34.700Z,1008.92
2018-05-21T03:39:34.701Z,1008.97
2018-05-21T03:40:34.702Z,1008.93
2018-05-21T03:41:34.702Z,1008.94
2018-05-21T03:42:34.704Z,1008.95
2018-05-21T03:43:34.705Z,1008.97
2018-05-21T03:44:34.706Z,1008.96
2018-05-21T03:45:34.706Z,1008.94
2018-05-21T03:46:34.707Z,1008.91
2018-05-21T03:47:34.708Z,1008.88
2018-05-21T03:48:34.710Z,1009.03
2018-05-21T03:49:34.710Z,1008.95
2018-05-21T03:50:34.711Z,1009.00
2018-05-21T03:51:34.712Z,1008.93
2018-05-21T03:52:34.714Z,1008.98
2018-05-21T03:53:34.713Z,1008.98
2018-05-21T03:54:34.715Z,1008.93
2018-05-21T03:55:34.716Z,1008.93
2018-05-21T03:56:34.717Z,1008.91
2018-05-21T03:57:34.722Z,1008.90
2018-05-21T03:58:34.719Z,1008.92
2018-05-21T03:59:34.719Z,1008.89
2018-05-21T04:00:34.721Z,1008.91
2018-05-21T04:01:34.721Z,1008.93
2018-05-21T04:02:34.722Z,1008.97
2018-05-21T04:03:34.723Z,1008.96
2018-05-21T04:04:34.757Z,1008.96
2018-05-21T04:05:34.725Z,1008.96
2018-05-21T04:06:34.728Z,1008.96
2018-05-21T04:07:34.729Z,1008.89
2018-05-21T04:08:34.728Z,1008.94
2018-05-21T04:09:34.730Z,1008.93
2018-05-21T04:10:34.730Z,1008.95
2018-05-21T04:11:34.732Z,1008.94
2018-05-21T04:12:34.733Z,1008.89
2018-05-21T04:13:34.733Z,1008.92
2018-05-21T04:14:34.736Z,1008.90
2018-05-21T04:15:34.735Z,1008.95
2018-05-21T04:16:34.744Z,1008.94
2018-05-21T04:17:34.740Z,1008.94
2018-05-21T04:18:34.738Z,1008.92
2018-05-21T04:19:34.739Z,1008.91
2018-05-21T04:20:34.741Z,1008.93
2018-05-21T04:21:34.741Z,1008.93
2018-05-21T04:22:34.744Z,1008.90
2018-05-21T04:23:34.743Z,1008.88
2018-05-21T04:24:34.745Z,1008.93
2018-05-21T04:25:34.832Z,1008.90
2018-05-21T04:26:34.746Z,1008.89
2018-05-21T04:27:34.748Z,1008.92
2018-05-21T04:28:34.749Z,1008.88
2018-05-21T04:29:34.749Z,1008.89
2018-05-21T04:30:34.751Z,1008.89
2018-05-21T04:31:34.752Z,1008.89
2018-05-21T04:32:34.753Z,1008.88
2018-05-21T04:33:34.754Z,1008.90
2018-05-21T04:34:34.758Z,1008.88
2018-05-21T04:35:34.758Z,1008.95
2018-05-21T04:36:34.845Z,1008.91
2018-05-21T04:37:34.758Z,1008.87
2018-05-21T04:38:34.760Z,1008.90
2018-05-21T04:39:34.760Z,1008.86
2018-05-21T04:40:34.762Z,1008.87
2018-05-21T04:41:34.762Z,1008.86
2018-05-21T04:42:34.764Z,1008.85
2018-05-21T04:43:34.767Z,1008.85
2018-05-21T04:44:34.769Z,1008.86
2018-05-21T04:45:34.770Z,1008.87
2018-05-21T04:46:34.769Z,1008.83
2018-05-21T04:47:34.773Z,1008.88
2018-05-21T04:48:34.773Z,1008.86
2018-05-21T04:49:34.775Z,1008.85
2018-05-21T04:50:34.772Z,1008.89
2018-05-21T04:51:34.776Z,1008.85
2018-05-21T04:52:34.776Z,1008.86
2018-05-21T04:53:34.777Z,1008.85
2018-05-21T04:54:34.778Z,1008.83
2018-05-21T04:55:34.780Z,1008.87
2018-05-21T04:56:34.781Z,1008.85
2018-05-21T04:57:34.781Z,1008.82
2018-05-21T04:58:34.784Z,1008.82
2018-05-21T04:59:34.784Z,1008.85
2018-05-21T05:00:34.786Z,1008.84
2018-05-21T05:01:34.787Z,1008.85
2018-05-21T05:02:34.788Z,1008.87
2018-05-21T05:03:34.789Z,1008.90
2018-05-21T05:04:34.791Z,1008.87
2018-05-21T05:05:34.791Z,1008.88
2018-05-21T05:06:34.795Z,1008.84
2018-05-21T05:07:34.795Z,1008.83
2018-05-21T05:08:34.797Z,1008.86
2018-05-21T05:09:34.796Z,1008.85
2018-05-21T05:10:34.801Z,1008.83
2018-05-21T05:11:34.799Z,1008.82
2018-05-21T05:12:34.803Z,1008.80
2018-05-21T05:13:34.805Z,1008.84
2018-05-21T05:14:34.804Z,1008.81
2018-05-21T05:15:34.806Z,1008.83
2018-05-21T05:16:34.808Z,1008.82
2018-05-21T05:17:34.808Z,1008.81
2018-05-21T05:18:34.810Z,1008.81
2018-05-21T05:19:34.813Z,1008.78
2018-05-21T05:20:34.814Z,1008.81
2018-05-21T05:21:34.815Z,1008.78
2018-05-21T05:22:34.819Z,1008.78
2018-05-21T05:23:34.820Z,1008.80
2018-05-21T05:24:34.822Z,1008.77
2018-05-21T05:25:34.822Z,1008.80
2018-05-21T05:26:34.889Z,1008.78
2018-05-21T05:27:34.827Z,1008.80
2018-05-21T05:28:34.829Z,1008.77
2018-05-21T05:29:34.830Z,1008.77
2018-05-21T05:30:34.834Z,1008.74
2018-05-21T05:31:34.834Z,1008.73
2018-05-21T05:32:34.838Z,1008.76
2018-05-21T05:33:34.838Z,1008.73
2018-05-21T05:34:34.840Z,1008.77
2018-05-21T05:35:34.841Z,1008.75
2018-05-21T05:36:34.845Z,1008.73
2018-05-21T05:37:34.846Z,1008.72
2018-05-21T05:38:34.849Z,1008.72
2018-05-21T05:39:34.850Z,1008.73
2018-05-21T05:40:34.855Z,1008.73
2018-05-21T05:41:34.856Z,1008.77
2018-05-21T05:42:34.861Z,1008.76
2018-05-21T05:43:34.859Z,1008.74
2018-05-21T05:44:34.863Z,1008.73
2018-05-21T05:45:34.862Z,1008.75
2018-05-21T05:46:34.865Z,1008.77
2018-05-21T05:47:34.866Z,1008.71
2018-05-21T05:48:34.870Z,1008.72
2018-05-21T05:49:34.872Z,1008.73
2018-05-21T05:50:34.874Z,1008.72
2018-05-21T05:51:34.876Z,1008.75
2018-05-21T05:52:34.879Z,1008.72
2018-05-21T05:53:34.880Z,1008.71
2018-05-21T05:54:34.883Z,1008.71
2018-05-21T05:55:34.887Z,1008.66
2018-05-21T05:56:34.887Z,1008.73
2018-05-21T05:57:34.890Z,1008.72
2018-05-21T05:58:34.892Z,1008.70
2018-05-21T05:59:34.895Z,1008.70
2018-05-21T06:00:34.897Z,1008.68
2018-05-21T06:01:34.900Z,1008.72
2018-05-21T06:02:34.905Z,1008.75
2018-05-21T06:03:34.907Z,1008.72
2018-05-21T06:04:34.907Z,1008.76
2018-05-21T06:05:34.909Z,1008.78
2018-05-21T06:06:34.912Z,1008.73
2018-05-21T06:07:34.985Z,1008.76
2018-05-21T06:08:34.918Z,1008.72
2018-05-21T06:09:34.919Z,1008.73
2018-05-21T06:10:34.921Z,1008.75
2018-05-21T06:11:34.926Z,1008.71
2018-05-21T06:12:34.931Z,1008.72
2018-05-21T06:13:34.956Z,1008.70
2018-05-21T06:14:34.932Z,1008.72
2018-05-21T06:15:34.936Z,1008.69
2018-05-21T06:16:34.937Z,1008.65
2018-05-21T06:17:34.939Z,1008.61
2018-05-21T06:18:34.943Z,1008.62
2018-05-21T06:19:34.950Z,1008.60
2018-05-21T06:20:34.948Z,1008.61
2018-05-21T06:21:34.951Z,1008.55
2018-05-21T06:22:34.953Z,1008.58
2018-05-21T06:23:34.957Z,1008.60
2018-05-21T06:24:34.959Z,1008.58
2018-05-21T06:25:34.962Z,1008.62
2018-05-21T06:26:34.964Z,1008.57
2018-05-21T06:27:34.967Z,1008.58
2018-05-21T06:28:34.972Z,1008.62
2018-05-21T06:29:34.973Z,1008.61
2018-05-21T06:30:34.976Z,1008.55
2018-05-21T06:31:34.980Z,1008.54
2018-05-21T06:32:34.983Z,1008.58
2018-05-21T06:33:34.987Z,1008.59
2018-05-21T06:34:35.021Z,1008.56
2018-05-21T06:35:34.992Z,1008.60
2018-05-21T06:36:34.994Z,1008.64
2018-05-21T06:37:34.998Z,1008.64
2018-05-21T06:38:35.000Z,1008.60
2018-05-21T06:39:35.005Z,1008.60
2018-05-21T06:40:35.007Z,1008.62
2018-05-21T06:41:35.011Z,1008.61
2018-05-21T06:42:35.013Z,1008.60
2018-05-21T06:43:35.017Z,1008.61
2018-05-21T06:44:35.021Z,1008.59
2018-05-21T06:45:35.022Z,1008.63
2018-05-21T06:46:35.026Z,1008.59
2018-05-21T06:47:35.030Z,1008.60
2018-05-21T06:48:35.033Z,1008.61
2018-05-21T06:49:35.035Z,1008.60
2018-05-21T06:50:35.039Z,1008.55
2018-05-21T06:51:35.043Z,1008.58
2018-05-21T06:52:35.046Z,1008.55
2018-05-21T06:53:35.049Z,1008.53
2018-05-21T06:54:35.059Z,1008.54
2018-05-21T06:55:35.057Z,1008.53
2018-05-21T06:56:35.067Z,1008.53
2018-05-21T06:57:35.063Z,1008.54
2018-05-21T06:58:35.068Z,1008.54
2018-05-21T06:59:35.072Z,1008.50
2018-05-21T07:00:35.075Z,1008.51
2018-05-21T07:01:35.077Z,1008.46
2018-05-21T07:02:35.081Z,1008.39
2018-05-21T07:03:35.087Z,1008.45
2018-05-21T07:04:35.129Z,1008.51
2018-05-21T07:05:35.091Z,1008.49
2018-05-21T07:06:35.096Z,1008.52
2018-05-21T07:07:35.099Z,1008.47
2018-05-21T07:08:35.103Z,1008.49
2018-05-21T07:09:35.106Z,1008.49
2018-05-21T07:10:35.110Z,1008.49
2018-05-21T07:11:35.114Z,1008.55
2018-05-21T07:12:35.119Z,1008.49
2018-05-21T07:13:35.120Z,1008.51
2018-05-21T07:14:35.126Z,1008.50
2018-05-21T07:15:35.130Z,1008.49
2018-05-21T07:16:35.134Z,1008.50
2018-05-21T07:17:35.136Z,1008.48
2018-05-21T07:18:35.140Z,1008.47
2018-05-21T07:19:35.144Z,1008.44
2018-05-21T07:20:35.149Z,1008.44
2018-05-21T07:21:35.152Z,1008.46
2018-05-21T07:22:35.157Z,1008.45
2018-05-21T07:23:35.161Z,1008.39
2018-05-21T07:24:35.165Z,1008.46
2018-05-21T07:25:35.168Z,1008.40
2018-05-21T07:26:35.231Z,1008.42
2018-05-21T07:27:35.177Z,1008.44
2018-05-21T07:28:35.183Z,1008.46
2018-05-21T07:29:35.187Z,1008.40
2018-05-21T07:30:35.192Z,1008.40
2018-05-21T07:31:35.246Z,1008.45
2018-05-21T07:32:35.197Z,1008.42
2018-05-21T07:33:35.201Z,1008.34
2018-05-21T07:34:35.206Z,1008.34
2018-05-21T07:35:35.211Z,1008.38
2018-05-21T07:36:35.217Z,1008.35
2018-05-21T07:37:35.221Z,1008.56
2018-05-21T07:38:35.225Z,1008.98
2018-05-21T07:39:35.230Z,1009.17
2018-05-21T07:40:35.235Z,1009.34
2018-05-21T07:41:35.239Z,1009.38
2018-05-21T07:42:35.247Z,1009.40
2018-05-21T07:43:35.254Z,1009.45
2018-05-21T07:44:35.262Z,1009.43
2018-05-21T07:45:35.269Z,1009.49
2018-05-21T07:46:35.277Z,1009.47
2018-05-21T07:47:35.286Z,1009.47
2018-05-21T07:48:35.295Z,1009.56
2018-05-21T07:49:35.305Z,1009.55
2018-05-21T07:50:35.314Z,1009.48
2018-05-21T07:51:35.405Z,1009.48
2018-05-21T07:52:35.337Z,1009.48
2018-05-21T07:53:35.346Z,1009.52
2018-05-21T07:54:35.359Z,1009.49
2018-05-21T07:55:35.372Z,1009.48
2018-05-21T07:56:35.384Z,1009.50
2018-05-21T07:57:35.396Z,1009.46
2018-05-21T07:58:35.408Z,1009.48
2018-05-21T07:59:35.421Z,1009.49
2018-05-21T08:00:35.433Z,1009.53
2018-05-21T08:01:35.449Z,1009.46
2018-05-21T08:02:35.459Z,1009.49
2018-05-21T08:03:35.477Z,1009.51
2018-05-21T08:04:35.487Z,1009.46
2018-05-21T08:05:35.500Z,1009.44
2018-05-21T08:06:35.513Z,1009.44
2018-05-21T08:07:35.527Z,1009.43
2018-05-21T08:08:35.543Z,1009.37
2018-05-21T08:09:35.556Z,1009.31
2018-05-21T08:10:35.569Z,1009.34
2018-05-21T08:11:35.585Z,1009.34
2018-05-21T08:12:35.598Z,1009.36
2018-05-21T08:13:35.612Z,1009.30
2018-05-21T08:14:35.702Z,1009.31
2018-05-21T08:15:35.641Z,1009.21
2018-05-21T08:16:35.656Z,1009.23
2018-05-21T08:17:35.671Z,1009.23
2018-05-21T08:18:35.685Z,1009.15
2018-05-21T08:19:35.699Z,1009.15
2018-05-21T08:20:35.715Z,1009.08
2018-05-21T08:21:35.729Z,1009.06
2018-05-21T08:22:35.747Z,1009.01
2018-05-21T08:23:35.759Z,1008.94
2018-05-21T08:24:35.775Z,1008.88
2018-05-21T08:25:35.789Z,1008.78
2018-05-21T08:26:35.804Z,1008.74
2018-05-21T08:27:35.820Z,1008.71
2018-05-21T08:28:35.835Z,1008.73
2018-05-21T08:29:35.852Z,1008.72
2018-05-21T08:30:35.864Z,1008.72
2018-05-21T08:31:35.881Z,1008.69
2018-05-21T08:32:35.896Z,1008.75
2018-05-21T08:33:35.910Z,1008.66
2018-05-21T08:34:35.927Z,1008.71
2018-05-21T08:35:35.943Z,1008.73
2018-05-21T08:36:35.959Z,1008.70
2018-05-21T08:37:35.973Z,1008.69
2018-05-21T08:38:35.989Z,1008.65
2018-05-21T08:39:36.005Z,1008.68
2018-05-21T08:40:36.021Z,1008.64
2018-05-21T08:41:36.042Z,1008.67
2018-05-21T08:42:36.110Z,1008.68
2018-05-21T08:43:36.066Z,1008.64
2018-05-21T08:44:36.084Z,1008.69
2018-05-21T08:45:36.097Z,1008.67
2018-05-21T08:46:36.113Z,1008.66
2018-05-21T08:47:36.133Z,1008.63
2018-05-21T08:48:36.260Z,1008.66
2018-05-21T08:49:36.161Z,1008.64
2018-05-21T08:50:36.177Z,1008.62
2018-05-21T08:51:36.194Z,1008.61
2018-05-21T08:52:36.210Z,1008.61
2018-05-21T08:53:36.225Z,1008.54
2018-05-21T08:54:36.240Z,1008.56
2018-05-21T08:55:36.257Z,1008.54
2018-05-21T08:56:36.308Z,1008.58
2018-05-21T08:57:36.289Z,1008.56
2018-05-21T08:58:36.305Z,1008.56
2018-05-21T08:59:36.322Z,1008.56
2018-05-21T09:00:36.339Z,1008.53
2018-05-21T09:01:36.354Z,1008.53
2018-05-21T09:02:36.375Z,1008.49
2018-05-21T09:03:36.386Z,1008.46
2018-05-21T09:04:36.412Z,1008.50
2018-05-21T09:05:36.419Z,1008.49
2018-05-21T09:06:36.436Z,1008.49
2018-05-21T09:07:36.453Z,1008.45
2018-05-21T09:08:36.469Z,1008.47
2018-05-21T09:09:36.485Z,1008.48
2018-05-21T09:10:36.502Z,1008.41
2018-05-21T09:11:36.519Z,1008.46
2018-05-21T09:12:36.535Z,1008.51
2018-05-21T09:13:36.551Z,1008.44
2018-05-21T09:14:36.568Z,1008.42
2018-05-21T09:15:36.585Z,1008.43
2018-05-21T09:16:36.637Z,1008.44
2018-05-21T09:17:36.618Z,1008.41
2018-05-21T09:18:36.634Z,1008.41
2018-05-21T09:19:36.651Z,1008.40
2018-05-21T09:20:36.667Z,1008.37
2018-05-21T09:21:36.684Z,1008.35
2018-05-21T09:22:36.703Z,1008.33
2018-05-21T09:23:36.718Z,1008.38
2018-05-21T09:24:36.733Z,1008.37
2018-05-21T09:25:36.751Z,1008.39
2018-05-21T09:26:36.766Z,1008.38
2018-05-21T09:27:36.783Z,1008.37
2018-05-21T09:28:36.799Z,1008.33
2018-05-21T09:29:36.815Z,1008.32
2018-05-21T09:30:36.831Z,1008.30
2018-05-21T09:31:36.848Z,1008.33
2018-05-21T09:32:36.865Z,1008.31
2018-05-21T09:33:36.880Z,1008.32
2018-05-21T09:34:36.896Z,1008.23
2018-05-21T09:35:36.916Z,1008.27
2018-05-21T09:36:36.929Z,1008.28
2018-05-21T09:37:36.945Z,1008.30
2018-05-21T09:38:36.961Z,1008.31
2018-05-21T09:39:36.977Z,1008.32
2018-05-21T09:40:36.994Z,1008.32
2018-05-21T09:41:37.009Z,1008.30
2018-05-21T09:42:37.025Z,1008.31
2018-05-21T09:43:37.042Z,1008.30
2018-05-21T09:44:37.059Z,1008.36
2018-05-21T09:45:37.073Z,1008.28
2018-05-21T09:46:37.090Z,1008.30
2018-05-21T09:47:37.106Z,1008.28
2018-05-21T09:48:37.126Z,1008.20
2018-05-21T09:49:37.140Z,1008.19
2018-05-21T09:50:37.153Z,1008.21
2018-05-21T09:51:37.169Z,1008.28
2018-05-21T09:52:37.185Z,1008.20
2018-05-21T09:53:37.201Z,1008.18
2018-05-21T09:54:37.216Z,1008.19
2018-05-21T09:55:37.232Z,1008.11
2018-05-21T09:56:37.249Z,1008.13
2018-05-21T09:57:37.263Z,1008.05
2018-05-21T09:58:37.278Z,1008.09
2018-05-21T09:59:37.300Z,1008.04
2018-05-21T10:00:37.311Z,1007.96
2018-05-21T10:01:37.326Z,1008.00
2018-05-21T10:02:37.346Z,1007.99
2018-05-21T10:03:37.359Z,1008.04
2018-05-21T10:04:37.380Z,1007.99
2018-05-21T10:05:37.387Z,1007.91
2018-05-21T10:06:37.405Z,1007.91
2018-05-21T10:07:37.425Z,1007.92
2018-05-21T10:08:37.437Z,1007.91
2018-05-21T10:09:37.453Z,1007.96
2018-05-21T10:10:37.466Z,1007.83
2018-05-21T10:11:37.484Z,1007.94
2018-05-21T10:12:37.499Z,1007.94
2018-05-21T10:13:37.514Z,1007.92
2018-05-21T10:14:37.529Z,1007.89
2018-05-21T10:15:37.545Z,1007.82
2018-05-21T10:16:37.560Z,1007.93
2018-05-21T10:17:37.575Z,1007.84
2018-05-21T10:18:37.590Z,1007.82
2018-05-21T10:19:37.606Z,1007.81
2018-05-21T10:20:37.622Z,1007.81
2018-05-21T10:21:37.636Z,1007.69
2018-05-21T10:22:37.652Z,1007.82
2018-05-21T10:23:37.668Z,1007.80
2018-05-21T10:24:37.683Z,1007.82
2018-05-21T10:25:37.698Z,1007.78
2018-05-21T10:26:37.713Z,1007.77
2018-05-21T10:27:37.728Z,1007.73
2018-05-21T10:28:37.744Z,1007.71
2018-05-21T10:29:37.757Z,1007.72
2018-05-21T10:30:37.774Z,1007.72
2018-05-21T10:31:37.788Z,1007.67
2018-05-21T10:32:37.803Z,1007.74
2018-05-21T10:33:37.818Z,1007.72
2018-05-21T10:34:37.833Z,1007.71
2018-05-21T10:35:37.846Z,1007.65
2018-05-21T10:36:37.862Z,1007.62
2018-05-21T10:37:37.879Z,1007.61
2018-05-21T10:38:37.892Z,1007.57
2018-05-21T10:39:37.906Z,1007.51
2018-05-21T10:40:37.919Z,1007.50
2018-05-21T10:41:37.933Z,1007.53
2018-05-21T10:42:37.947Z,1007.54
2018-05-21T10:43:37.961Z,1007.51
2018-05-21T10:44:37.975Z,1007.49
2018-05-21T10:45:37.988Z,1007.52
2018-05-21T10:46:38.004Z,1007.51
2018-05-21T10:47:38.017Z,1007.44
2018-05-21T10:48:38.031Z,1007.38
2018-05-21T10:49:38.045Z,1007.39
2018-05-21T10:50:38.058Z,1007.46
2018-05-21T10:51:38.072Z,1007.48
2018-05-21T10:52:38.086Z,1007.39
2018-05-21T10:53:38.099Z,1007.38
2018-05-21T10:54:38.113Z,1007.38
2018-05-21T10:55:38.127Z,1007.30
2018-05-21T10:56:38.145Z,1007.32
2018-05-21T10:57:38.220Z,1007.40
2018-05-21T10:58:38.170Z,1007.29
2018-05-21T10:59:38.181Z,1007.33
2018-05-21T11:00:38.196Z,1007.31
2018-05-21T11:01:38.208Z,1007.25
2018-05-21T11:02:38.222Z,1007.21
2018-05-21T11:03:38.233Z,1007.22
2018-05-21T11:04:38.285Z,1007.21
2018-05-21T11:05:38.259Z,1007.14
2018-05-21T11:06:38.274Z,1007.16
2018-05-21T11:07:38.287Z,1007.12
2018-05-21T11:08:38.306Z,1007.02
2018-05-21T11:09:38.313Z,1007.00
2018-05-21T11:10:38.326Z,1006.95
2018-05-21T11:11:38.339Z,1006.98
2018-05-21T11:12:38.353Z,1006.88
2018-05-21T11:13:38.364Z,1006.89
2018-05-21T11:14:38.377Z,1006.86
2018-05-21T11:15:38.390Z,1006.83
2018-05-21T11:16:38.403Z,1006.83
2018-05-21T11:17:38.414Z,1006.63
2018-05-21T11:18:38.426Z,1006.54
2018-05-21T11:19:38.439Z,1006.58
2018-05-21T11:20:38.450Z,1006.46
2018-05-21T11:21:38.462Z,1006.48
2018-05-21T11:22:38.476Z,1006.48
2018-05-21T11:23:38.487Z,1006.47
2018-05-21T11:24:38.565Z,1006.49
2018-05-21T11:25:38.513Z,1006.48
2018-05-21T11:26:38.521Z,1006.34
2018-05-21T11:27:38.532Z,1006.37
2018-05-21T11:28:38.543Z,1006.31
2018-05-21T11:29:38.553Z,1006.28
2018-05-21T11:30:38.564Z,1006.34
2018-05-21T11:31:38.575Z,1006.28
2018-05-21T11:32:38.586Z,1006.32
2018-05-21T11:33:38.594Z,1006.26
2018-05-21T11:34:38.605Z,1006.28
2018-05-21T11:35:38.617Z,1006.21
2018-05-21T11:36:38.627Z,1006.27
2018-05-21T11:37:38.637Z,1006.25
2018-05-21T11:38:38.646Z,1006.22
2018-05-21T11:39:38.657Z,1006.10
2018-05-21T11:40:38.667Z,1006.22
2018-05-21T11:41:38.677Z,1006.16
2018-05-21T11:42:38.686Z,1006.10
2018-05-21T11:43:38.696Z,1006.05
2018-05-21T11:44:38.705Z,1006.13
2018-05-21T11:45:38.715Z,1006.10
2018-05-21T11:46:38.724Z,1006.05
2018-05-21T11:47:38.733Z,1005.99
2018-05-21T11:48:38.745Z,1005.98
2018-05-21T11:49:38.752Z,1005.98
2018-05-21T11:50:38.826Z,1005.99
2018-05-21T11:51:38.775Z,1005.93
2018-05-21T11:52:38.788Z,1005.93
2018-05-21T11:53:38.790Z,1005.94
2018-05-21T11:54:38.799Z,1005.88
2018-05-21T11:55:38.809Z,1005.91
2018-05-21T11:56:38.818Z,1005.90
2018-05-21T11:57:38.827Z,1005.94
2018-05-21T11:58:38.838Z,1005.91
2018-05-21T11:59:38.847Z,1005.91
2018-05-21T12:00:38.855Z,1005.86
2018-05-21T12:01:38.864Z,1005.89
2018-05-21T12:02:38.965Z,1005.83
2018-05-21T12:03:38.881Z,1005.88
2018-05-21T12:04:38.891Z,1005.92
2018-05-21T12:05:38.898Z,1005.85